ダブリン の空港の天気 - METARとTAF

ダブリン空港 ( EIDW / DUB ) - アイルランド ダブリン
飛行場実況気象(Metar)
観測時間05/27 00:00 GMT (05/26 23:00 UTC)
風向・風速南南東 2m/s
視程10km以上
天気現象
少しの雲 雲底高度 670m
全天の8割程度の雲 雲底高度 1520m
気温12℃
湿度94%
気圧1037hPa
METAREIDW 262300Z 15004KT 100V180 9999 FEW022 BKN050 12/11 Q1037 NOSIG
過去の天気等 Google飛行場航空写真 Wunderground天気予報

過去48時間のMETAR

飛行場予報(TAF)
発表時間: 5/26 18:00 GMT (5/26 17:00 UTC)
予報対象時間: 26日19時 GMT ~ 27日19時 GMT
風向・風速南東 5m/s
視程10km以上
全天の4割程度の雲 雲底高度 1070m
26日20時 GMT ~ 26日22時 GMT に徐々に
風向・風速東 3m/s
27日9時 GMT ~ 27日11時 GMT に徐々に
風向・風速東南東 4m/s
TAF EIDW 261700Z 2618/2718 14010KT 9999 SCT035
BECMG 2619/2621 10005KT
BECMG 2708/2710 12008KT